Time;durP1;ratioP1;P1;durP2;ratioP2;P2;SDS_P1;SDS_P2;PMS_P1;PMS_P2;Temp;Humidity;BMP_temperature;BMP_pressure;BME280_temperature;BME280_humidity;BME280_pressure;Samples;Min_cycle;Max_cycle;Signal;HPM_P1;HPM_P2
2022/12/04 00:00:19;;;;;;;14.93;7.55;;;;;;;-4.64;59.84;103178.70;1716132;82;21253;-60
2022/12/04 00:03:51;;;;;;;16.32;8.08;;;;;;;-4.63;59.88;103191.62;1695201;82;21225;-59
2022/12/04 00:07:14;;;;;;;14.28;7.30;;;;;;;-4.63;59.89;103176.92;1715847;83;21229;-59
2022/12/04 00:10:36;;;;;;;16.77;7.95;;;;;;;-4.65;59.87;103179.58;1697647;83;21241;-60
2022/12/04 00:13:51;;;;;;;13.43;7.65;;;;;;;-4.68;59.84;103184.94;1716199;82;21439;-59
2022/12/04 00:17:11;;;;;;;16.82;7.67;;;;;;;-4.72;59.87;103180.53;1712995;83;21241;-58
2022/12/04 00:20:35;;;;;;;15.03;8.25;;;;;;;-4.73;59.89;103182.78;1697283;83;21828;-59
2022/12/04 00:23:59;;;;;;;12.82;7.42;;;;;;;-4.76;59.90;103184.11;1715680;82;21222;-59
2022/12/04 00:27:22;;;;;;;11.80;7.35;;;;;;;-4.79;59.88;103176.59;1669469;83;21306;-59
2022/12/04 00:30:44;;;;;;;13.60;7.78;;;;;;;-4.80;59.93;103178.37;1713127;83;21206;-59
2022/12/04 00:33:55;;;;;;;12.03;7.25;;;;;;;-4.83;59.95;103174.39;1715635;82;21376;-58
2022/12/04 00:37:11;;;;;;;13.05;7.37;;;;;;;-4.81;60.03;103177.05;1715661;83;21198;-60
2022/12/04 00:40:18;;;;;;;12.75;6.85;;;;;;;-4.79;60.03;103169.44;1716188;83;21714;-59
2022/12/04 00:43:16;;;;;;;15.05;7.55;;;;;;;-4.79;60.01;103166.77;1695125;82;21872;-59
2022/12/04 00:46:28;;;;;;;12.73;6.90;;;;;;;-4.82;59.95;103162.78;1673131;83;21234;-59
2022/12/04 00:49:47;;;;;;;14.87;7.35;;;;;;;-4.84;60.00;103173.95;1695224;83;21221;-59
2022/12/04 00:53:24;;;;;;;13.60;6.87;;;;;;;-4.81;60.05;103174.38;1878104;76;22257;-59
2022/12/04 00:56:45;;;;;;;11.38;6.50;;;;;;;-4.88;60.13;103162.84;1812440;79;21328;-59
2022/12/04 01:00:04;;;;;;;11.12;6.62;;;;;;;-4.90;60.10;103167.77;1812320;78;21202;-59
2022/12/04 01:03:36;;;;;;;13.68;7.20;;;;;;;-4.90;60.20;103168.63;1789711;78;21195;-59
2022/12/04 01:07:19;;;;;;;13.68;6.72;;;;;;;-4.87;60.21;103171.28;1793146;78;21187;-58
2022/12/04 01:10:39;;;;;;;14.43;7.12;;;;;;;-4.91;60.19;103170.88;1811946;78;21179;-60
2022/12/04 01:14:13;;;;;;;15.20;6.05;;;;;;;-4.90;60.28;103177.98;1814647;77;21203;-58
2022/12/04 01:17:41;;;;;;;14.38;7.75;;;;;;;-4.88;60.28;103181.98;1812139;79;21325;-58
2022/12/04 01:21:20;;;;;;;10.43;6.08;;;;;;;-4.88;60.32;103177.53;1793409;78;21192;-59
2022/12/04 01:24:41;;;;;;;12.80;6.60;;;;;;;-4.88;60.32;103170.86;1801691;79;21392;-58
2022/12/04 01:28:00;;;;;;;15.40;7.33;;;;;;;-4.89;60.29;103167.76;1812351;78;21167;-59
2022/12/04 01:31:22;;;;;;;14.00;6.70;;;;;;;-4.89;60.30;103170.42;1812426;79;21180;-58
2022/12/04 01:34:42;;;;;;;14.15;7.08;;;;;;;-4.93;60.26;103169.99;1812241;78;21370;-60
2022/12/04 01:38:05;;;;;;;14.03;7.25;;;;;;;-4.94;60.23;103172.23;1811862;78;21740;-58
2022/12/04 01:41:22;;;;;;;13.80;7.17;;;;;;;-4.95;60.38;103163.77;1769813;79;21179;-59
2022/12/04 01:44:42;;;;;;;16.35;7.50;;;;;;;-4.91;60.44;103160.19;1792017;79;21172;-58
2022/12/04 01:48:11;;;;;;;13.22;6.65;;;;;;;-4.89;60.43;103166.42;1810947;78;21420;-59
2022/12/04 01:52:03;;;;;;;12.55;6.53;;;;;;;-4.88;60.42;103160.61;1797041;78;21862;-58
2022/12/04 01:55:20;;;;;;;11.78;6.10;;;;;;;-4.89;60.42;103165.52;1791033;78;21183;-60
2022/12/04 01:58:45;;;;;;;10.85;6.53;;;;;;;-4.89;60.43;103166.86;1811677;78;21223;-60
2022/12/04 02:02:23;;;;;;;14.00;6.90;;;;;;;-4.90;60.43;103168.63;1812112;79;21306;-60
2022/12/04 02:05:49;;;;;;;12.25;6.35;;;;;;;-4.92;60.38;103170.89;1793720;78;21270;-59
2022/12/04 02:09:18;;;;;;;11.93;6.58;;;;;;;-4.95;60.37;103186.47;1811930;78;21739;-57
2022/12/04 02:12:57;;;;;;;12.43;6.30;;;;;;;-4.97;60.31;103188.72;1797132;78;21231;-60
2022/12/04 02:16:38;;;;;;;11.15;6.03;;;;;;;-4.99;60.37;103187.40;1809519;79;21187;-59
2022/12/04 02:20:17;;;;;;;13.55;6.62;;;;;;;-4.97;60.48;103188.28;1810579;78;21199;-59
2022/12/04 02:23:59;;;;;;;11.22;5.67;;;;;;;-4.96;60.46;103199.39;1807843;78;21175;-59
2022/12/04 02:27:54;;;;;;;12.13;5.90;;;;;;;-4.98;60.47;103199.84;1811520;78;21334;-60
2022/12/04 02:31:24;;;;;;;11.73;6.03;;;;;;;-5.01;60.33;103203.88;1811805;79;21199;-59
2022/12/04 02:35:03;;;;;;;10.50;5.80;;;;;;;-5.07;60.30;103209.25;1814501;77;21203;-58
2022/12/04 02:38:34;;;;;;;11.38;5.72;;;;;;;-5.15;60.13;103209.73;1869699;76;22859;-57
2022/12/04 02:42:06;;;;;;;12.35;5.83;;;;;;;-5.24;60.25;103211.12;1805453;79;21650;-58
2022/12/04 02:45:40;;;;;;;10.23;4.87;;;;;;;-5.22;60.41;103208.45;1805289;79;21201;-58
2022/12/04 02:49:19;;;;;;;13.38;5.72;;;;;;;-5.19;60.46;103205.33;1804771;79;21357;-57
2022/12/04 03:43:40;;;;;;;8.40;4.83;;;;;;;-5.28;60.45;103237.38;1796680;78;21188;-58
2022/12/04 03:47:14;;;;;;;6.90;3.92;;;;;;;-5.31;60.40;103239.20;1804777;79;21200;-57
2022/12/04 03:50:49;;;;;;;9.60;5.12;;;;;;;-5.32;60.42;103244.98;1745365;81;21350;-59
2022/12/04 03:54:27;;;;;;;9.23;4.72;;;;;;;-5.34;60.45;103233.41;1788767;79;21406;-59
2022/12/04 03:57:43;;;;;;;9.40;4.65;;;;;;;-5.33;60.45;103245.88;1804825;79;21847;-57
2022/12/04 04:01:08;;;;;;;11.12;4.95;;;;;;;-5.35;60.40;103239.66;1805093;79;21250;-59
2022/12/04 04:04:33;;;;;;;8.08;4.20;;;;;;;-5.36;60.40;103233.85;1790568;79;21781;-57
2022/12/04 04:11:55;;;;;;;11.10;4.05;;;;;;;-5.40;60.34;103232.55;1768447;79;21189;-59
2022/12/04 04:26:00;;;;;;;8.25;4.30;;;;;;;-5.44;60.39;103248.14;1801999;79;21193;-57
2022/12/04 04:29:09;;;;;;;12.47;3.87;;;;;;;-5.47;60.41;103254.83;1804941;79;21228;-63
2022/12/04 04:32:07;;;;;;;6.05;3.52;;;;;;;-5.44;60.49;103254.34;1778296;79;21355;-58
2022/12/04 04:35:44;;;;;;;5.85;3.30;;;;;;;-5.43;60.50;103252.14;1784864;79;21338;-58
2022/12/04 04:39:20;;;;;;;6.37;3.35;;;;;;;-5.37;60.62;103261.89;1804790;79;21192;-59
2022/12/04 04:43:22;;;;;;;6.35;3.40;;;;;;;-5.33;60.61;103257.89;1783306;79;21378;-58
2022/12/04 04:46:41;;;;;;;5.67;2.95;;;;;;;-5.29;60.63;103266.75;1783082;79;21212;-58
2022/12/04 04:50:09;;;;;;;5.62;2.83;;;;;;;-5.27;60.63;103261.87;1790723;79;21209;-59
2022/12/04 04:53:45;;;;;;;5.90;2.72;;;;;;;-5.29;60.51;103260.98;1804117;79;21355;-59
2022/12/04 04:57:34;;;;;;;10.58;3.27;;;;;;;-5.36;60.41;103268.55;1804297;79;21942;-59
2022/12/04 05:01:05;;;;;;;8.70;3.30;;;;;;;-5.39;60.42;103275.70;1764674;81;21189;-58
2022/12/04 05:04:21;;;;;;;8.63;3.50;;;;;;;-5.40;60.46;103267.23;1745368;81;21414;-58
2022/12/04 05:07:46;;;;;;;7.70;3.42;;;;;;;-5.38;60.51;103261.02;1772451;79;21401;-58
2022/12/04 05:11:05;;;;;;;6.03;3.63;;;;;;;-5.36;60.49;103263.69;1804721;79;21326;-58
2022/12/04 05:14:31;;;;;;;7.42;3.40;;;;;;;-5.35;60.50;103277.02;1803314;79;21561;-58
2022/12/04 05:17:46;;;;;;;9.03;3.10;;;;;;;-5.35;60.48;103281.03;1760135;79;21702;-58
2022/12/04 05:21:18;;;;;;;8.10;3.60;;;;;;;-5.37;60.40;103275.23;1789770;79;21251;-58
2022/12/04 05:24:52;;;;;;;4.80;2.85;;;;;;;-5.39;60.44;103271.70;1784159;79;21409;-58
2022/12/04 05:29:01;;;;;;;7.33;3.30;;;;;;;-5.39;60.42;103280.58;1804057;79;21390;-58
2022/12/04 05:32:34;;;;;;;6.22;2.92;;;;;;;-5.52;60.18;103278.86;1802751;79;21185;-60
2022/12/04 05:36:13;;;;;;;6.60;2.75;;;;;;;-5.53;60.29;103282.41;1773162;79;21216;-59
2022/12/04 05:40:05;;;;;;;5.20;2.87;;;;;;;-5.51;60.32;103286.39;1792150;79;21408;-59
2022/12/04 05:43:22;;;;;;;9.48;4.10;;;;;;;-5.55;60.28;103302.85;1799863;79;22039;-58
2022/12/04 05:46:52;;;;;;;5.50;2.50;;;;;;;-5.54;60.31;103293.98;1779817;79;21197;-58
2022/12/04 05:50:22;;;;;;;6.83;2.98;;;;;;;-5.47;60.44;103298.86;1773569;79;21336;-57
2022/12/04 05:53:36;;;;;;;7.22;2.90;;;;;;;-5.52;60.25;103292.64;1803536;79;21761;-57
2022/12/04 05:57:30;;;;;;;6.62;2.75;;;;;;;-5.57;60.16;103297.98;1802155;79;21824;-57
2022/12/04 06:00:41;;;;;;;10.90;2.80;;;;;;;-5.57;60.25;103293.98;1802817;79;21161;-58
2022/12/04 06:04:01;;;;;;;6.40;3.08;;;;;;;-5.48;60.40;103304.63;1803967;79;21240;-57
2022/12/04 06:07:31;;;;;;;5.28;2.40;;;;;;;-5.45;60.33;103297.95;1803865;79;21253;-58
2022/12/04 06:10:55;;;;;;;;;;;;;;;-5.45;60.26;103302.39;1789788;79;21805;-61
2022/12/04 06:14:18;;;;;;;3.87;2.35;;;;;;;-5.42;60.29;103295.27;1838369;76;22280;-58
2022/12/04 06:17:38;;;;;;;5.28;2.80;;;;;;;-5.45;60.26;103305.05;1773759;80;21359;-58
2022/12/04 06:21:02;;;;;;;4.80;2.65;;;;;;;-5.47;60.18;103316.20;1772013;80;21220;-57
2022/12/04 06:24:24;;;;;;;8.20;2.70;;;;;;;-5.44;60.24;103315.72;1745347;80;21249;-58
2022/12/04 06:28:07;;;;;;;9.68;2.47;;;;;;;-5.37;60.33;103308.59;1745629;79;21736;-59
2022/12/04 06:31:54;;;;;;;5.17;2.60;;;;;;;-5.27;60.33;103307.25;1773463;80;21864;-59
2022/12/04 06:35:17;;;;;;;5.05;2.87;;;;;;;-5.18;60.33;103321.89;1773209;80;21551;-59
2022/12/04 06:38:30;;;;;;;7.00;2.35;;;;;;;-5.11;60.31;103326.34;1785835;79;21868;-58
2022/12/04 06:42:10;;;;;;;5.08;2.58;;;;;;;-5.03;60.31;103331.20;1773127;80;21200;-58
2022/12/04 06:45:55;;;;;;;10.00;4.80;;;;;;;-4.92;60.32;103326.70;1756869;81;21398;-60
2022/12/04 06:49:32;;;;;;;7.15;4.25;;;;;;;-4.88;60.13;103343.15;1731459;81;21370;-60
2022/12/04 06:53:20;;;;;;;8.78;4.62;;;;;;;-4.85;60.12;103335.55;1713855;81;21199;-59
2022/12/04 06:56:52;;;;;;;10.35;5.92;;;;;;;-4.76;60.13;103327.05;1730753;82;21355;-61
2022/12/04 07:00:14;;;;;;;9.50;4.83;;;;;;;-4.64;60.24;103328.34;1734163;81;21463;-59
2022/12/04 07:04:02;;;;;;;9.83;3.80;;;;;;;-4.53;60.20;103324.27;1736079;81;21233;-61
2022/12/04 07:07:18;;;;;;;7.15;3.95;;;;;;;-4.35;60.19;103327.28;1846558;76;22242;-59
2022/12/04 07:10:42;;;;;;;4.33;2.40;;;;;;;-4.36;60.19;103322.84;1750105;81;22193;-59
2022/12/04 07:14:03;;;;;;;5.55;3.27;;;;;;;-4.28;60.16;103321.87;1740278;81;21457;-58
2022/12/04 07:17:29;;;;;;;6.42;3.00;;;;;;;-4.26;60.01;103325.43;1741537;81;21777;-59
2022/12/04 07:20:58;;;;;;;4.37;3.02;;;;;;;-4.25;59.98;103312.95;1740033;81;21280;-59
2022/12/04 07:24:14;;;;;;;9.25;2.85;;;;;;;-4.31;59.73;103321.03;1730833;82;21914;-59
2022/12/04 07:27:32;;;;;;;7.80;4.00;;;;;;;-4.36;59.71;103314.34;1744860;80;21931;-58
2022/12/04 07:30:44;;;;;;;4.85;2.65;;;;;;;-4.30;59.80;103312.09;1764425;80;21331;-58
2022/12/04 07:34:02;;;;;;;5.05;2.47;;;;;;;-4.18;59.94;103312.89;1760537;80;21773;-59
2022/12/04 07:37:20;;;;;;;7.03;2.83;;;;;;;-4.05;59.99;103305.66;1768464;80;21358;-58
2022/12/04 07:40:37;;;;;;;6.03;3.15;;;;;;;-3.99;59.92;103313.63;1730764;81;21981;-58
2022/12/04 07:44:04;;;;;;;5.70;3.17;;;;;;;-3.90;59.96;103320.27;1732359;81;21797;-61
2022/12/04 07:47:21;;;;;;;5.15;2.50;;;;;;;-3.76;60.05;103310.33;1741630;82;21718;-60
2022/12/04 07:50:53;;;;;;;4.78;2.70;;;;;;;-3.62;59.97;103320.45;1743507;81;21216;-60
2022/12/04 07:54:16;;;;;;;5.17;2.67;;;;;;;-3.59;59.81;103317.30;1728119;82;21201;-59
2022/12/04 07:57:34;;;;;;;6.47;3.50;;;;;;;-3.58;59.75;103326.19;1742239;82;21331;-60
2022/12/04 08:01:05;;;;;;;5.92;3.12;;;;;;;-3.52;59.75;103324.82;1725994;82;21554;-60
2022/12/04 08:04:26;;;;;;;10.70;4.62;;;;;;;-3.44;59.74;103321.62;1736422;81;21280;-60
2022/12/04 08:07:52;;;;;;;11.33;4.55;;;;;;;-3.40;59.66;103323.34;1739879;81;21190;-59
2022/12/04 08:11:18;;;;;;;7.83;3.77;;;;;;;-3.30;59.74;103315.66;1763252;81;21241;-59
2022/12/04 08:18:13;;;;;;;6.37;3.55;;;;;;;-3.20;59.46;103324.01;1853069;76;28157;-60
2022/12/04 08:21:46;;;;;;;4.92;2.52;;;;;;;-3.15;59.38;103323.51;1736900;81;21542;-58
2022/12/04 08:25:07;;;;;;;8.18;3.75;;;;;;;-3.17;59.11;103318.61;1787189;79;21433;-60
2022/12/04 08:29:02;;;;;;;7.12;2.90;;;;;;;-3.19;59.21;103318.63;1792591;78;21220;-58
2022/12/04 08:32:22;;;;;;;7.45;2.52;;;;;;;-3.10;59.23;103317.66;1800592;79;21480;-58
2022/12/04 08:35:47;;;;;;;4.90;2.25;;;;;;;-3.09;59.26;103308.70;1799839;79;21209;-59
2022/12/04 08:39:26;;;;;;;6.72;2.72;;;;;;;-3.09;59.17;103306.91;1801080;78;21398;-58
2022/12/04 08:43:14;;;;;;;5.17;2.77;;;;;;;-3.06;59.29;103301.52;1767931;81;21756;-59
2022/12/04 08:46:29;;;;;;;7.95;2.52;;;;;;;-2.94;59.38;103300.48;1715766;83;21433;-58
2022/12/04 08:49:46;;;;;;;6.10;2.72;;;;;;;-2.87;59.37;103290.58;1749513;81;21224;-58
2022/12/04 08:52:58;;;;;;;7.22;2.50;;;;;;;-2.81;59.39;103292.73;1736758;80;21264;-58
2022/12/04 08:56:28;;;;;;;8.70;3.00;;;;;;;-2.72;59.42;103288.58;1781738;80;21421;-59
2022/12/04 09:00:11;;;;;;;6.65;2.83;;;;;;;-2.61;59.22;103289.75;1832125;76;22339;-58
2022/12/04 09:03:35;;;;;;;5.08;2.75;;;;;;;-2.63;59.26;103291.12;1794913;76;21327;-59
2022/12/04 09:07:04;;;;;;;6.25;2.92;;;;;;;-2.53;59.25;103295.90;1791445;79;21390;-59
2022/12/04 09:10:20;;;;;;;4.78;2.90;;;;;;;-2.48;59.17;103296.28;1806712;77;21962;-57
2022/12/04 09:13:35;;;;;;;5.72;2.58;;;;;;;-2.44;59.12;103295.79;1776855;78;21224;-58
2022/12/04 09:16:54;;;;;;;5.10;2.90;;;;;;;-2.42;59.07;103292.16;1792313;77;21393;-58
2022/12/04 09:20:20;;;;;;;6.67;3.15;;;;;;;-2.38;59.11;103286.30;1776467;77;21879;-60
2022/12/04 09:23:35;;;;;;;8.43;3.30;;;;;;;-2.35;59.08;103276.42;1791040;75;21189;-59
2022/12/04 09:27:01;;;;;;;8.45;2.98;;;;;;;-2.32;58.94;103277.71;1795723;75;21828;-58
2022/12/04 09:30:20;;;;;;;5.53;2.58;;;;;;;-2.29;58.91;103269.61;1801460;79;21555;-59
2022/12/04 09:34:05;;;;;;;16.60;8.90;;;;;;;-2.22;58.95;103264.56;1780868;78;21208;-59
2022/12/04 09:37:37;;;;;;;5.42;3.58;;;;;;;-2.13;58.97;103264.88;1782073;78;21283;-58
2022/12/04 09:40:57;;;;;;;7.25;3.67;;;;;;;-2.01;59.04;103254.82;1764436;81;21197;-57
2022/12/04 09:44:18;;;;;;;12.93;4.25;;;;;;;-1.91;59.00;103259.58;1748894;77;21354;-60
2022/12/04 09:47:57;;;;;;;8.90;3.87;;;;;;;-1.81;58.90;103262.55;1744811;78;21314;-59
2022/12/04 09:51:17;;;;;;;7.53;3.40;;;;;;;-1.82;58.74;103254.93;1683389;80;21289;-59
2022/12/04 09:54:33;;;;;;;6.70;3.35;;;;;;;-1.83;58.63;103259.89;1716286;80;21943;-59
2022/12/04 09:57:53;;;;;;;7.08;2.98;;;;;;;-1.75;58.71;103250.34;1763259;79;21820;-59
2022/12/04 10:01:11;;;;;;;6.62;2.77;;;;;;;-1.66;58.73;103247.48;1798486;78;21797;-58
2022/12/04 10:04:24;;;;;;;9.63;5.12;;;;;;;-1.55;58.74;103247.71;1755259;79;21793;-57
2022/12/04 10:07:46;;;;;;;9.60;4.22;;;;;;;-1.52;58.53;103248.99;1791663;77;21846;-59
2022/12/04 10:11:40;;;;;;;7.40;2.90;;;;;;;-1.49;58.55;103248.52;1737716;77;21271;-58
2022/12/04 10:15:27;;;;;;;6.40;3.45;;;;;;;-1.38;58.60;103247.84;1771032;78;21206;-57
2022/12/04 10:19:28;;;;;;;5.60;2.70;;;;;;;-1.28;58.58;103226.13;1808173;77;21751;-58
2022/12/04 10:23:06;;;;;;;8.85;3.40;;;;;;;-1.18;58.50;103231.75;1793448;78;21223;-58
2022/12/04 10:26:23;;;;;;;7.15;3.20;;;;;;;-1.17;58.30;103224.58;1762234;78;21891;-57
2022/12/04 10:29:42;;;;;;;9.60;4.03;;;;;;;-1.12;58.27;103221.31;1763060;79;21206;-58
2022/12/04 10:33:21;;;;;;;8.25;3.92;;;;;;;-1.07;58.27;103219.41;1719957;78;21308;-58
2022/12/04 10:36:38;;;;;;;5.92;3.02;;;;;;;-1.03;58.15;103207.21;1685965;79;21545;-58
2022/12/04 10:40:07;;;;;;;7.97;3.37;;;;;;;-0.94;58.15;103211.52;1727698;78;21241;-58
2022/12/04 10:43:34;;;;;;;10.30;4.17;;;;;;;-0.87;58.18;103209.99;1720085;79;21246;-58
2022/12/04 10:46:50;;;;;;;8.40;4.12;;;;;;;-0.85;58.05;103210.85;1702965;80;21239;-56
2022/12/04 10:50:28;;;;;;;6.35;3.58;;;;;;;-0.79;58.04;103205.78;1723624;79;21329;-58
2022/12/04 10:53:54;;;;;;;13.38;4.65;;;;;;;-0.72;57.90;103197.56;1703083;81;22143;-59
2022/12/04 10:57:25;;;;;;;6.17;3.77;;;;;;;-0.70;57.85;103190.80;1670214;79;21267;-56
2022/12/04 11:01:22;;;;;;;7.72;3.58;;;;;;;-0.55;57.81;103182.34;1830853;75;23854;-57
2022/12/04 11:04:41;;;;;;;9.03;3.47;;;;;;;-0.61;57.69;103182.50;1754049;78;21897;-57
2022/12/04 11:08:33;;;;;;;6.12;3.33;;;;;;;-0.60;57.65;103180.22;1763166;78;21742;-58
2022/12/04 11:12:05;;;;;;;6.50;3.47;;;;;;;-0.62;57.58;103172.67;1719006;76;21391;-58
2022/12/04 11:15:24;;;;;;;6.42;3.67;;;;;;;-0.54;57.68;103182.30;1741004;79;21232;-58
2022/12/04 11:18:42;;;;;;;7.53;3.20;;;;;;;-0.44;57.66;103172.20;1735210;77;21374;-58
2022/12/04 11:22:07;;;;;;;7.15;3.67;;;;;;;-0.37;57.65;103172.49;1737295;79;21375;-58
2022/12/04 11:25:25;;;;;;;8.93;4.00;;;;;;;-0.32;57.60;103175.95;1733563;78;21354;-57
2022/12/04 11:28:42;;;;;;;8.35;4.67;;;;;;;-0.35;57.32;103172.00;1729810;77;21302;-58
2022/12/04 11:32:15;;;;;;;9.68;4.80;;;;;;;-0.41;57.27;103166.74;1706805;76;21181;-58
2022/12/04 11:35:31;;;;;;;8.28;4.03;;;;;;;-0.54;57.08;103164.82;1754553;76;21390;-57
2022/12/04 11:39:24;;;;;;;6.47;3.10;;;;;;;-0.48;57.26;103142.28;1744153;78;21942;-58
2022/12/04 11:42:44;;;;;;;4.90;2.62;;;;;;;-0.41;57.27;103153.29;1753005;76;22162;-57
2022/12/04 11:46:11;;;;;;;7.45;2.95;;;;;;;-0.34;57.21;103149.09;1715143;78;21303;-58
2022/12/04 11:50:24;;;;;;;8.80;3.12;;;;;;;-0.32;57.11;103150.39;1732580;78;21274;-58
2022/12/04 11:54:49;;;;;;;6.25;3.08;;;;;;;-0.29;57.02;103147.16;1714260;78;21287;-57
2022/12/04 11:58:55;;;;;;;7.37;3.67;;;;;;;-0.24;56.96;103149.73;1713893;79;21776;-56
2022/12/04 12:02:45;;;;;;;7.10;2.42;;;;;;;-0.18;56.93;103158.98;1728651;78;21372;-57
2022/12/04 12:06:51;;;;;;;4.58;2.70;;;;;;;-0.15;56.84;103154.41;1701274;78;21769;-58
2022/12/04 12:10:48;;;;;;;6.53;2.87;;;;;;;-0.23;56.60;103165.84;1720293;78;21776;-58
2022/12/04 12:14:44;;;;;;;7.67;2.87;;;;;;;-0.29;56.52;103151.66;1726474;77;21608;-57
2022/12/04 12:18:30;;;;;;;9.90;3.35;;;;;;;-0.27;56.55;103153.37;1731536;78;21404;-57
2022/12/04 12:26:21;;;;;;;5.65;3.27;;;;;;;-0.31;56.37;103163.80;1735831;79;21906;-57
2022/12/04 12:33:17;;;;;;;9.50;3.00;;;;;;;-0.19;56.43;103168.86;1723404;79;21253;-62
2022/12/04 12:39:25;;;;;;;5.95;3.20;;;;;;;0.02;56.37;103170.10;1709935;80;21228;-58
2022/12/04 12:42:04;;;;;;;8.08;3.83;;;;;;;0.03;56.18;103175.93;1757740;77;21265;-57
2022/12/04 12:45:17;;;;;;;9.38;3.60;;;;;;;-0.06;55.95;103166.73;1698369;78;21227;-57
2022/12/04 12:47:59;;;;;;;5.58;3.20;;;;;;;-0.10;55.88;103169.98;1728337;77;21261;-58
2022/12/04 12:50:43;;;;;;;7.62;3.40;;;;;;;-0.09;56.01;103173.09;1728416;78;21195;-57
2022/12/04 12:54:25;;;;;;;6.60;2.77;;;;;;;-0.05;55.95;103164.48;1762433;77;21648;-57
2022/12/04 12:58:13;;;;;;;9.05;3.60;;;;;;;-0.09;55.92;103174.89;1748972;78;21128;-58
2022/12/04 13:05:58;;;;;;;13.40;4.15;;;;;;;-0.19;55.87;103182.80;1803221;79;21452;-58
2022/12/04 13:09:51;;;;;;;9.08;3.15;;;;;;;-0.38;55.59;103180.15;1737319;80;21208;-59
2022/12/04 13:14:14;;;;;;;8.00;3.72;;;;;;;-0.58;55.44;103191.84;1765468;80;21216;-59
2022/12/04 13:17:56;;;;;;;7.00;3.02;;;;;;;-0.66;55.58;103189.79;1771224;80;21259;-57
2022/12/04 13:22:10;;;;;;;4.95;2.87;;;;;;;-0.74;55.55;103186.39;1883460;75;22762;-59
2022/12/04 13:26:18;;;;;;;13.00;4.72;;;;;;;-0.83;55.56;103195.58;1735214;81;21393;-58
2022/12/04 13:30:23;;;;;;;8.50;3.37;;;;;;;-0.97;55.46;103191.42;1714088;82;21212;-58
2022/12/04 13:38:23;;;;;;;13.10;3.70;;;;;;;-1.29;55.36;103197.50;1809206;78;21223;-58
2022/12/04 13:42:07;;;;;;;10.85;5.20;;;;;;;-1.37;55.44;103190.50;1812544;78;21745;-58
2022/12/04 13:45:45;;;;;;;12.43;3.75;;;;;;;-1.57;55.26;103186.41;1671685;85;21320;-58
2022/12/04 13:49:00;;;;;;;6.97;3.42;;;;;;;-1.69;55.28;103199.20;1619421;87;21227;-57
2022/12/04 13:53:00;;;;;;;6.35;3.33;;;;;;;-1.80;55.26;103207.92;1640765;86;21352;-58
2022/12/04 13:56:37;;;;;;;14.93;5.67;;;;;;;-1.92;55.21;103205.48;1654773;85;21243;-58
2022/12/04 14:00:41;;;;;;;9.58;5.05;;;;;;;-2.02;55.20;103196.70;1610200;89;21862;-58
2022/12/04 14:04:11;;;;;;;7.95;3.95;;;;;;;-2.22;54.97;103212.24;1568892;89;21262;-57
2022/12/04 14:07:44;;;;;;;10.53;5.05;;;;;;;-2.35;55.04;103205.34;1603128;89;21287;-58
2022/12/04 14:11:25;;;;;;;12.10;3.67;;;;;;;-2.44;55.02;103204.12;1585289;90;21226;-58
2022/12/04 14:15:04;;;;;;;;;;;;;;;-2.54;55.01;103201.18;1617100;86;21827;-58
2022/12/04 14:18:40;;;;;;;7.90;4.03;;;;;;;-2.62;54.98;103205.77;1582903;90;20297;-58
2022/12/04 14:22:03;;;;;;;10.00;4.40;;;;;;;-2.70;55.03;103216.17;1569133;89;21728;-58
2022/12/04 14:25:29;;;;;;;7.60;4.55;;;;;;;-2.74;55.03;103214.46;1579402;89;21251;-58
2022/12/04 14:28:55;;;;;;;10.48;4.30;;;;;;;-2.82;54.91;103215.89;1611674;88;21266;-58
2022/12/04 14:32:19;;;;;;;10.20;5.65;;;;;;;-2.89;54.89;103207.97;1647045;86;22303;-58
2022/12/04 14:36:30;;;;;;;9.90;4.15;;;;;;;-2.94;54.92;103207.14;1623212;86;22133;-57
2022/12/04 14:40:06;;;;;;;6.67;3.90;;;;;;;-2.97;54.91;103207.19;1626632;87;21341;-59
2022/12/04 14:43:38;;;;;;;7.20;4.60;;;;;;;-3.03;54.92;103206.83;1628435;87;21343;-58
2022/12/04 14:48:00;;;;;;;8.95;4.37;;;;;;;-3.06;54.89;103194.83;1630349;88;21278;-59
2022/12/04 14:51:45;;;;;;;8.70;3.95;;;;;;;-3.13;54.82;103201.16;1568167;90;21554;-59
2022/12/04 14:55:24;;;;;;;12.58;4.60;;;;;;;-3.19;54.83;103198.56;1589939;88;21268;-58
2022/12/04 14:58:56;;;;;;;7.78;3.95;;;;;;;-3.23;54.78;103201.73;1579473;89;21320;-58
2022/12/04 15:06:10;;;;;;;9.40;4.20;;;;;;;-3.35;54.71;103199.66;1586010;89;21249;-58
2022/12/04 15:13:02;;;;;;;7.45;4.00;;;;;;;-3.48;54.66;103203.39;1582549;80;21347;-59
2022/12/04 15:16:28;;;;;;;9.30;4.33;;;;;;;-3.52;54.62;103204.34;1641870;86;21451;-57
2022/12/04 15:20:19;;;;;;;10.30;3.98;;;;;;;-3.56;54.64;103207.95;1654464;85;21274;-58
2022/12/04 15:23:42;;;;;;;9.08;4.22;;;;;;;-3.60;54.59;103204.41;1633016;86;21252;-59
2022/12/04 15:27:31;;;;;;;14.05;4.60;;;;;;;-3.61;54.58;103209.78;1628944;88;21804;-59
2022/12/04 15:30:55;;;;;;;8.93;5.50;;;;;;;-3.60;54.53;103210.23;1846546;76;22194;-59
2022/12/04 15:34:17;;;;;;;10.95;5.08;;;;;;;-3.69;54.50;103211.66;1779388;79;21220;-58
2022/12/04 15:38:10;;;;;;;16.87;5.97;;;;;;;-3.72;54.49;103214.37;1752806;80;21694;-59
2022/12/04 15:41:50;;;;;;;8.68;4.85;;;;;;;-3.83;54.26;103221.19;1767525;79;21151;-59
2022/12/04 15:45:53;;;;;;;12.82;5.15;;;;;;;-3.93;54.29;103222.64;1743610;80;21820;-58
2022/12/04 15:49:28;;;;;;;11.85;4.90;;;;;;;-3.97;54.37;103212.86;1742381;82;21264;-58
2022/12/04 15:53:30;;;;;;;11.38;5.22;;;;;;;-4.03;54.26;103202.22;1717935;82;21336;-59
2022/12/04 15:56:45;;;;;;;13.35;4.92;;;;;;;-4.14;54.22;103217.48;1740099;80;21748;-58
2022/12/04 16:00:42;;;;;;;13.13;4.72;;;;;;;-4.21;54.19;103221.10;1734499;81;21209;-59
2022/12/04 16:04:10;;;;;;;12.68;5.60;;;;;;;-4.22;54.25;103215.33;1849429;76;28451;-58
2022/12/04 16:07:51;;;;;;;14.05;4.58;;;;;;;-4.23;54.12;103213.09;1786833;79;21192;-58
2022/12/04 16:11:15;;;;;;;14.90;5.08;;;;;;;-4.29;54.02;103225.63;1684715;84;21224;-58
2022/12/04 16:14:41;;;;;;;30.52;14.25;;;;;;;-4.35;54.03;103219.00;1701745;84;22185;-58
2022/12/04 16:18:16;;;;;;;15.80;6.58;;;;;;;-4.37;54.05;103216.34;1701160;83;21207;-58
2022/12/04 16:21:45;;;;;;;14.18;5.12;;;;;;;-4.39;54.10;103218.60;1707996;83;21409;-58
2022/12/04 16:25:02;;;;;;;14.35;4.80;;;;;;;-4.41;54.11;103228.41;1708653;83;21740;-59
2022/12/04 16:28:26;;;;;;;8.13;4.42;;;;;;;-4.51;53.95;103236.95;1709037;83;21349;-58
2022/12/04 16:36:18;;;;;;;11.55;4.33;;;;;;;-4.61;54.04;103241.47;1708593;84;21176;-58
2022/12/04 16:39:48;;;;;;;9.48;4.30;;;;;;;-4.64;53.99;103233.48;1709085;83;21252;-58
2022/12/04 16:43:14;;;;;;;12.73;5.00;;;;;;;-4.76;53.92;103242.89;1682114;83;21164;-58
2022/12/04 16:46:37;;;;;;;13.55;5.05;;;;;;;-4.73;53.97;103248.24;1877633;76;22217;-58
2022/12/04 16:49:55;;;;;;;11.30;5.22;;;;;;;-4.79;54.02;103247.39;1809335;77;21204;-58
2022/12/04 16:53:22;;;;;;;16.07;5.15;;;;;;;-4.80;53.94;103243.82;1779902;79;21728;-59
2022/12/04 16:56:59;;;;;;;16.50;5.75;;;;;;;-4.83;53.92;103262.55;1804725;79;21203;-59
2022/12/04 17:00:26;;;;;;;10.70;4.67;;;;;;;-4.89;53.78;103261.69;1804891;79;21335;-58
2022/12/04 17:03:59;;;;;;;9.03;4.25;;;;;;;-4.93;53.91;103256.80;1791537;79;21390;-58
2022/12/04 17:07:23;;;;;;;10.50;4.80;;;;;;;-4.90;54.00;103258.59;1805087;79;21733;-59
2022/12/04 17:10:37;;;;;;;12.07;4.75;;;;;;;-4.88;54.01;103262.11;1804682;79;21224;-59
2022/12/04 17:13:57;;;;;;;11.43;4.53;;;;;;;-4.89;53.99;103255.01;1770512;79;21196;-59
2022/12/04 17:21:07;;;;;;;7.58;4.08;;;;;;;-4.87;53.86;103260.77;1853114;74;22221;-58
2022/12/04 17:24:47;;;;;;;11.50;4.35;;;;;;;-4.94;53.87;103258.14;1812054;76;21333;-59
2022/12/04 17:29:00;;;;;;;8.18;3.90;;;;;;;-4.95;53.83;103255.05;1815313;76;21183;-61
2022/12/04 17:32:29;;;;;;;12.80;3.98;;;;;;;-4.98;53.86;103251.92;1822841;75;21348;-58
2022/12/04 17:36:02;;;;;;;8.50;4.37;;;;;;;-5.00;53.84;103255.08;1808391;76;21840;-58
2022/12/04 17:39:20;;;;;;;7.60;4.17;;;;;;;-4.95;53.81;103253.23;1836889;76;22293;-58
2022/12/04 17:42:40;;;;;;;9.73;4.62;;;;;;;-5.01;53.82;103259.95;1764245;80;21384;-59
2022/12/04 17:54:08;;;;;;;9.05;4.05;;;;;;;-5.03;53.66;103251.09;1866198;76;22284;-60
2022/12/04 17:57:34;;;;;;;10.32;4.10;;;;;;;-5.09;53.65;103259.09;1881260;76;22362;-59
2022/12/04 18:00:56;;;;;;;12.23;5.30;;;;;;;-5.13;53.71;103258.69;1817757;79;21180;-59
2022/12/04 18:04:55;;;;;;;7.03;4.00;;;;;;;-5.15;53.68;103259.57;1724292;82;21297;-59